Time;durP1;ratioP1;P1;durP2;ratioP2;P2;SDS_P1;SDS_P2;PMS_P1;PMS_P2;Temp;Humidity;BMP_temperature;BMP_pressure;BME280_temperature;BME280_humidity;BME280_pressure;Samples;Min_cycle;Max_cycle;Signal;HPM_P1;HPM_P2
2022/07/19 00:00:06;;;;;;;0.90;0.90;;;;;19.60;98714.00;;;;5114763;28;20194;-75
2022/07/19 00:02:33;;;;;;;0.90;0.90;;;;;19.60;98712.00;;;;5114752;28;20193;-75
2022/07/19 00:05:00;;;;;;;1.20;1.17;;;;;19.60;98711.00;;;;5114705;28;20198;-74
2022/07/19 00:07:27;;;;;;;1.00;1.00;;;;;19.70;98716.00;;;;5114688;28;20201;-74
2022/07/19 00:09:54;;;;;;;1.50;1.40;;;;;19.70;98716.00;;;;5114509;28;20228;-75
2022/07/19 00:12:21;;;;;;;0.50;0.50;;;;;19.70;98713.00;;;;5114485;28;20259;-75
2022/07/19 00:14:48;;;;;;;0.60;0.60;;;;;19.80;98717.00;;;;5114411;28;20297;-75
2022/07/19 00:17:17;;;;;;;0.70;0.70;;;;;19.80;98711.00;;;;5114531;28;20194;-74
2022/07/19 00:19:44;;;;;;;0.97;0.97;;;;;19.70;98706.00;;;;5114377;28;20190;-75
2022/07/19 00:22:11;;;;;;;5.20;1.27;;;;;19.70;98720.00;;;;5114617;28;20202;-75
2022/07/19 00:24:38;;;;;;;1.00;1.00;;;;;19.70;98711.00;;;;5114490;28;20190;-75
2022/07/19 00:27:05;;;;;;;0.60;0.60;;;;;19.60;98730.00;;;;5114289;28;20593;-75
2022/07/19 00:29:32;;;;;;;1.00;0.97;;;;;19.60;98725.00;;;;5114366;28;20280;-75
2022/07/19 00:32:01;;;;;;;0.57;0.57;;;;;19.70;98731.00;;;;5114171;28;20218;-75
2022/07/19 00:34:28;;;;;;;1.10;1.10;;;;;19.50;98724.00;;;;5096530;28;20700;-74
2022/07/19 00:36:57;;;;;;;0.70;0.70;;;;;19.50;98721.00;;;;5114148;28;20218;-74
2022/07/19 00:39:24;;;;;;;1.50;1.00;;;;;19.40;98715.00;;;;5114207;28;20331;-74
2022/07/19 00:41:51;;;;;;;0.80;0.80;;;;;19.40;98719.00;;;;5114401;28;20190;-74
2022/07/19 00:44:20;;;;;;;0.50;0.50;;;;;19.30;98717.00;;;;5114175;28;20271;-74
2022/07/19 00:46:48;;;;;;;0.97;0.73;;;;;19.30;98719.00;;;;5096149;28;20194;-75
2022/07/19 00:49:15;;;;;;;0.60;0.60;;;;;19.30;98716.00;;;;5114040;28;20692;-74
2022/07/19 00:51:44;;;;;;;0.70;0.70;;;;;19.30;98724.00;;;;5116822;28;20194;-74
2022/07/19 00:54:12;;;;;;;1.50;1.40;;;;;19.20;98715.00;;;;5117562;28;20289;-75
2022/07/19 00:56:42;;;;;;;0.60;0.60;;;;;19.30;98713.00;;;;5117647;28;20280;-75
2022/07/19 00:59:13;;;;;;;0.97;0.97;;;;;19.30;98711.00;;;;5117554;28;20248;-74
2022/07/19 01:01:40;;;;;;;0.53;0.53;;;;;19.30;98717.00;;;;5117632;28;20200;-74
2022/07/19 01:04:07;;;;;;;0.50;0.50;;;;;19.30;98709.00;;;;5117549;28;20258;-74
2022/07/19 01:06:37;;;;;;;0.80;0.80;;;;;19.30;98714.00;;;;5117532;28;20649;-74
2022/07/19 01:09:06;;;;;;;0.70;0.70;;;;;19.30;98716.00;;;;5117468;28;20201;-74
2022/07/19 01:11:33;;;;;;;15.17;1.17;;;;;19.20;98715.00;;;;5117400;28;20228;-74
2022/07/19 01:14:00;;;;;;;0.50;0.50;;;;;19.20;98713.00;;;;5117401;28;20218;-74
2022/07/19 01:16:27;;;;;;;0.93;0.93;;;;;19.10;98707.00;;;;5121074;28;20221;-74
2022/07/19 01:18:54;;;;;;;3.50;1.07;;;;;18.90;98712.00;;;;5124349;28;20630;-74
2022/07/19 01:21:25;;;;;;;1.40;1.20;;;;;19.00;98708.00;;;;5120978;28;20726;-74
2022/07/19 01:23:52;;;;;;;0.80;0.80;;;;;18.90;98703.00;;;;5120922;28;20205;-74
2022/07/19 01:26:21;;;;;;;0.70;0.70;;;;;18.80;98715.00;;;;5117419;28;20244;-75
2022/07/19 01:28:48;;;;;;;0.80;0.80;;;;;18.80;98706.00;;;;5117293;28;20222;-74
2022/07/19 01:31:15;;;;;;;1.00;1.00;;;;;18.80;98703.00;;;;5099439;28;20194;-74
2022/07/19 01:33:43;;;;;;;1.13;1.13;;;;;18.70;98705.00;;;;5116903;28;20222;-74
2022/07/19 01:36:10;;;;;;;1.13;1.13;;;;;18.70;98708.00;;;;5117018;28;20206;-74
2022/07/19 01:38:38;;;;;;;1.00;1.00;;;;;18.50;98706.00;;;;5116944;28;20661;-74
2022/07/19 01:41:08;;;;;;;0.87;0.87;;;;;18.40;98715.00;;;;5117013;28;20255;-74
2022/07/19 01:43:35;;;;;;;0.50;0.50;;;;;18.50;98708.00;;;;5116826;28;20225;-74
2022/07/19 01:46:03;;;;;;;0.77;0.77;;;;;18.50;98709.00;;;;5116868;28;20648;-75
2022/07/19 01:48:32;;;;;;;0.63;0.63;;;;;18.40;98707.00;;;;5116942;28;20198;-72
2022/07/19 01:51:01;;;;;;;1.20;1.20;;;;;18.40;98706.00;;;;5116941;28;20218;-73
2022/07/19 01:53:28;;;;;;;1.07;1.07;;;;;18.40;98706.00;;;;5116802;28;20217;-73
2022/07/19 01:55:55;;;;;;;1.17;1.17;;;;;18.30;98713.00;;;;5116648;28;20236;-73
2022/07/19 01:58:22;;;;;;;0.87;0.87;;;;;18.30;98710.00;;;;5116922;28;20198;-72
2022/07/19 02:00:49;;;;;;;0.90;0.90;;;;;18.30;98709.00;;;;5098916;28;20703;-73
2022/07/19 02:03:17;;;;;;;0.97;0.97;;;;;18.30;98710.00;;;;5115530;28;20270;-73
2022/07/19 02:05:44;;;;;;;3.73;1.03;;;;;18.10;98713.00;;;;5116540;28;20237;-73
2022/07/19 02:08:11;;;;;;;0.70;0.70;;;;;18.10;98703.00;;;;5116551;28;20226;-73
2022/07/19 02:10:40;;;;;;;0.90;0.90;;;;;18.00;98704.00;;;;5116643;28;20200;-73
2022/07/19 02:13:08;;;;;;;0.90;0.90;;;;;18.00;98699.00;;;;5116408;28;20671;-73
2022/07/19 02:15:35;;;;;;;0.83;0.83;;;;;18.00;98699.00;;;;5116369;28;20275;-74
2022/07/19 02:18:01;;;;;;;0.57;0.57;;;;;18.00;98693.00;;;;5116343;28;20222;-74
2022/07/19 02:20:29;;;;;;;0.80;0.80;;;;;18.00;98694.00;;;;5116344;28;20560;-74
2022/07/19 02:22:56;;;;;;;0.60;0.60;;;;;18.00;98688.00;;;;5116208;28;20225;-74
2022/07/19 02:25:23;;;;;;;1.07;1.07;;;;;17.90;98687.00;;;;5116244;28;20198;-74
2022/07/19 02:27:50;;;;;;;1.47;1.37;;;;;17.80;98693.00;;;;5098367;28;20202;-74
2022/07/19 02:30:18;;;;;;;0.60;0.60;;;;;17.80;98681.00;;;;5116194;28;20277;-74
2022/07/19 02:32:45;;;;;;;0.80;0.80;;;;;17.80;98678.00;;;;5116216;28;20233;-75
2022/07/19 02:35:12;;;;;;;0.77;0.77;;;;;17.90;98672.00;;;;5116103;28;20217;-73
2022/07/19 02:37:40;;;;;;;1.27;1.17;;;;;17.80;98675.00;;;;5116196;28;20194;-74
2022/07/19 02:40:08;;;;;;;1.27;0.83;;;;;17.80;98672.00;;;;5116220;28;20230;-74
2022/07/19 02:42:35;;;;;;;0.50;0.50;;;;;17.70;98677.00;;;;5115948;28;20301;-74
2022/07/19 02:45:02;;;;;;;1.03;1.03;;;;;17.80;98676.00;;;;5115898;28;20217;-73
2022/07/19 02:47:30;;;;;;;1.00;1.00;;;;;17.70;98678.00;;;;5116007;28;20289;-74
2022/07/19 02:49:57;;;;;;;0.80;0.80;;;;;17.70;98675.00;;;;5098024;28;20648;-73
2022/07/19 02:52:23;;;;;;;1.27;1.27;;;;;17.80;98674.00;;;;5115774;28;20647;-73
2022/07/19 02:54:50;;;;;;;0.70;0.70;;;;;17.80;98677.00;;;;5115849;28;20196;-74
2022/07/19 02:57:19;;;;;;;0.70;0.70;;;;;17.70;98674.00;;;;5115690;28;20251;-73
2022/07/19 02:59:46;;;;;;;0.60;0.60;;;;;17.60;98675.00;;;;5115748;28;20267;-74
2022/07/19 03:02:13;;;;;;;0.50;0.50;;;;;17.70;98676.00;;;;5097914;28;20221;-74
2022/07/19 03:04:40;;;;;;;0.80;0.80;;;;;17.60;98672.00;;;;5115679;28;20198;-73
2022/07/19 03:07:07;;;;;;;0.50;0.50;;;;;17.50;98663.00;;;;5115525;28;20193;-73
2022/07/19 03:09:34;;;;;;;0.40;0.40;;;;;17.50;98669.00;;;;5115878;28;20190;-73
2022/07/19 03:12:01;;;;;;;1.07;1.00;;;;;17.50;98672.00;;;;5097618;28;20238;-73
2022/07/19 03:14:28;;;;;;;1.57;1.47;;;;;17.50;98664.00;;;;5115221;28;20228;-73
2022/07/19 03:16:54;;;;;;;0.70;0.70;;;;;17.50;98663.00;;;;5115488;28;20616;-73
2022/07/19 03:19:21;;;;;;;0.77;0.77;;;;;17.40;98657.00;;;;5115303;28;20220;-73
2022/07/19 03:21:49;;;;;;;0.70;0.70;;;;;17.30;98663.00;;;;5115340;28;20198;-72
2022/07/19 03:24:15;;;;;;;0.57;0.57;;;;;17.20;98662.00;;;;5115319;28;20228;-75
2022/07/19 03:26:42;;;;;;;0.63;0.63;;;;;17.30;98659.00;;;;5097354;28;20202;-74
2022/07/19 03:29:09;;;;;;;0.63;0.63;;;;;17.30;98667.00;;;;5115310;28;20732;-74
2022/07/19 03:31:38;;;;;;;1.90;0.90;;;;;17.30;98662.00;;;;5115318;28;20198;-74
2022/07/19 03:34:05;;;;;;;1.03;1.03;;;;;17.20;98663.00;;;;5115227;28;20226;-74
2022/07/19 03:36:32;;;;;;;0.60;0.60;;;;;17.30;98656.00;;;;5115412;28;20268;-74
2022/07/19 03:38:59;;;;;;;1.13;1.03;;;;;17.30;98660.00;;;;5115173;28;20220;-74
2022/07/19 03:41:26;;;;;;;1.50;1.30;;;;;17.30;98658.00;;;;5114981;28;20222;-74
2022/07/19 03:43:53;;;;;;;0.97;0.93;;;;;17.40;98665.00;;;;5115017;28;20585;-74
2022/07/19 03:46:20;;;;;;;0.70;0.70;;;;;17.50;98663.00;;;;5114865;28;20255;-72
2022/07/19 03:48:49;;;;;;;0.70;0.70;;;;;17.40;98666.00;;;;5115017;28;20194;-73
2022/07/19 03:51:16;;;;;;;0.90;0.90;;;;;17.40;98661.00;;;;5117068;28;20206;-73
2022/07/19 03:53:43;;;;;;;0.60;0.60;;;;;17.40;98664.00;;;;5114825;28;20248;-73
2022/07/19 03:56:10;;;;;;;0.80;0.80;;;;;17.40;98673.00;;;;5115081;28;20217;-73
2022/07/19 03:58:37;;;;;;;0.60;0.60;;;;;17.30;98674.00;;;;5114872;28;20218;-73
2022/07/19 04:01:05;;;;;;;0.80;0.80;;;;;17.30;98670.00;;;;5114734;28;20196;-73
2022/07/19 04:03:35;;;;;;;0.73;0.73;;;;;17.30;98668.00;;;;5114624;28;20228;-73
2022/07/19 04:06:02;;;;;;;0.70;0.70;;;;;17.30;98665.00;;;;5114692;28;20208;-73
2022/07/19 04:08:29;;;;;;;1.03;1.03;;;;;17.30;98669.00;;;;5114608;28;20282;-73
2022/07/19 04:10:56;;;;;;;1.70;1.10;;;;;17.30;98665.00;;;;5114697;28;20217;-73
2022/07/19 04:13:23;;;;;;;0.70;0.70;;;;;17.20;98674.00;;;;5114435;28;20235;-73
2022/07/19 04:15:50;;;;;;;1.00;1.00;;;;;17.40;98679.00;;;;5096793;28;20190;-73
2022/07/19 04:18:19;;;;;;;0.90;0.90;;;;;17.30;98677.00;;;;5114460;28;20566;-73
2022/07/19 04:20:46;;;;;;;0.60;0.60;;;;;17.40;98689.00;;;;5096377;28;20221;-73
2022/07/19 04:23:12;;;;;;;0.83;0.83;;;;;17.20;98681.00;;;;5114400;28;20194;-73
2022/07/19 04:25:40;;;;;;;0.50;0.50;;;;;17.30;98689.00;;;;5113670;28;20229;-74
2022/07/19 04:28:07;;;;;;;0.60;0.60;;;;;17.40;98692.00;;;;5114421;28;20194;-72
2022/07/19 04:30:35;;;;;;;1.13;1.13;;;;;17.50;98692.00;;;;5114280;28;20237;-73
2022/07/19 04:33:01;;;;;;;3.87;1.43;;;;;17.30;98686.00;;;;5096321;28;20218;-72
2022/07/19 04:35:28;;;;;;;0.80;0.80;;;;;17.40;98681.00;;;;5114328;28;20198;-72
2022/07/19 04:37:55;;;;;;;1.63;1.53;;;;;17.40;98682.00;;;;5096568;28;20509;-72
2022/07/19 04:40:22;;;;;;;0.80;0.80;;;;;17.40;98687.00;;;;5114167;28;20197;-72
2022/07/19 04:42:49;;;;;;;0.80;0.80;;;;;17.40;98692.00;;;;5114041;28;20267;-73
2022/07/19 04:45:16;;;;;;;0.50;0.50;;;;;17.40;98680.00;;;;5114214;28;20202;-74
2022/07/19 04:47:43;;;;;;;0.60;0.60;;;;;17.40;98690.00;;;;5096493;28;20240;-74
2022/07/19 04:50:10;;;;;;;1.27;1.17;;;;;17.50;98691.00;;;;5114069;28;20227;-73
2022/07/19 04:52:37;;;;;;;0.50;0.50;;;;;17.50;98693.00;;;;5114186;28;20186;-76
2022/07/19 04:55:05;;;;;;;0.80;0.80;;;;;17.60;98687.00;;;;5114088;28;20197;-74
2022/07/19 04:57:32;;;;;;;0.90;0.90;;;;;17.50;98686.00;;;;5113942;28;20206;-74
2022/07/19 04:59:59;;;;;;;0.53;0.53;;;;;17.60;98681.00;;;;5114029;28;20230;-73
2022/07/19 05:02:26;;;;;;;1.50;1.43;;;;;17.70;98680.00;;;;5113908;28;20273;-73
2022/07/19 05:04:55;;;;;;;0.60;0.60;;;;;17.70;98688.00;;;;5113746;28;20225;-74
2022/07/19 05:07:22;;;;;;;0.90;0.90;;;;;17.70;98688.00;;;;5113739;28;20209;-74
2022/07/19 05:09:51;;;;;;;0.43;0.43;;;;;17.80;98678.00;;;;5113654;28;20218;-74
2022/07/19 05:12:18;;;;;;;1.07;1.03;;;;;18.00;98685.00;;;;5113817;28;20216;-72
2022/07/19 05:14:45;;;;;;;1.33;1.33;;;;;18.00;98680.00;;;;5113635;28;20221;-72
2022/07/19 05:17:12;;;;;;;5.43;1.30;;;;;18.00;98682.00;;;;5113702;28;20250;-71
2022/07/19 05:19:39;;;;;;;1.00;1.00;;;;;18.10;98685.00;;;;5113699;28;20358;-74
2022/07/19 05:22:09;;;;;;;0.80;0.80;;;;;18.20;98678.00;;;;5113570;28;20210;-75
2022/07/19 05:24:36;;;;;;;1.30;1.23;;;;;18.30;98679.00;;;;5113623;28;20272;-73
2022/07/19 05:27:02;;;;;;;0.53;0.53;;;;;18.40;98683.00;;;;5113652;28;20526;-73
2022/07/19 05:29:29;;;;;;;0.80;0.80;;;;;18.50;98675.00;;;;5113502;28;20713;-73
2022/07/19 05:31:56;;;;;;;0.60;0.60;;;;;18.60;98677.00;;;;5113453;28;20226;-73
2022/07/19 05:34:23;;;;;;;2.33;2.23;;;;;18.70;98674.00;;;;5113431;28;20297;-73
2022/07/19 05:36:50;;;;;;;1.43;0.93;;;;;18.70;98679.00;;;;5114713;28;20634;-73
2022/07/19 05:39:17;;;;;;;1.00;1.00;;;;;18.80;98684.00;;;;5117009;28;20210;-74
2022/07/19 05:41:44;;;;;;;1.57;1.47;;;;;18.90;98676.00;;;;5116945;28;20194;-73
2022/07/19 05:44:11;;;;;;;1.00;1.00;;;;;19.00;98678.00;;;;5116960;28;20202;-73
2022/07/19 05:46:40;;;;;;;0.90;0.90;;;;;19.10;98676.00;;;;5098649;28;20334;-74
2022/07/19 05:49:08;;;;;;;1.10;1.10;;;;;19.20;98664.00;;;;5098896;28;20530;-73
2022/07/19 05:51:35;;;;;;;0.87;0.87;;;;;19.30;98673.00;;;;5116705;28;20186;-72
2022/07/19 05:54:02;;;;;;;1.07;1.07;;;;;19.40;98674.00;;;;5116656;28;20213;-74
2022/07/19 05:56:29;;;;;;;1.13;1.13;;;;;19.50;98676.00;;;;5116719;28;20196;-73
2022/07/19 05:58:56;;;;;;;4.87;1.20;;;;;19.60;98677.00;;;;5116665;28;20239;-72
2022/07/19 06:01:23;;;;;;;1.93;1.70;;;;;19.70;98675.00;;;;5116421;28;20247;-72
2022/07/19 06:03:52;;;;;;;1.47;1.40;;;;;19.90;98667.00;;;;5116417;28;20222;-72
2022/07/19 06:06:20;;;;;;;1.27;1.20;;;;;19.90;98667.00;;;;5116737;28;20216;-72
2022/07/19 06:08:47;;;;;;;0.83;0.80;;;;;20.00;98668.00;;;;5116490;28;20220;-73
2022/07/19 06:11:15;;;;;;;0.63;0.63;;;;;20.10;98665.00;;;;5116532;28;20225;-74
2022/07/19 06:13:45;;;;;;;1.07;1.07;;;;;20.30;98670.00;;;;5116544;28;20560;-73
2022/07/19 06:16:13;;;;;;;0.80;0.80;;;;;20.30;98675.00;;;;5098777;28;20202;-78
2022/07/19 06:18:40;;;;;;;1.00;1.00;;;;;20.50;98670.00;;;;5098345;28;20229;-72
2022/07/19 06:21:09;;;;;;;1.13;1.13;;;;;20.60;98664.00;;;;5098475;28;20202;-76
2022/07/19 06:23:35;;;;;;;1.37;1.27;;;;;20.70;98675.00;;;;5116151;28;20212;-73
2022/07/19 06:26:02;;;;;;;1.17;1.17;;;;;20.80;98679.00;;;;5116195;28;20198;-73
2022/07/19 06:28:32;;;;;;;2.13;1.50;;;;;20.80;98677.00;;;;5116201;28;20269;-70
2022/07/19 06:30:59;;;;;;;4.32;1.58;;;;;20.90;98676.00;;;;5116073;28;20282;-69
2022/07/19 06:33:27;;;;;;;0.83;0.83;;;;;21.00;98673.00;;;;5116075;28;20740;-70
2022/07/19 06:35:54;;;;;;;0.93;0.93;;;;;21.10;98670.00;;;;5116052;28;20190;-71
2022/07/19 06:38:21;;;;;;;1.58;1.48;;;;;21.30;98669.00;;;;5116154;28;20190;-69
2022/07/19 06:40:48;;;;;;;2.17;1.33;;;;;21.40;98673.00;;;;5116085;28;20209;-70
2022/07/19 06:43:14;;;;;;;0.65;0.65;;;;;21.50;98677.00;;;;5115856;28;20313;-70
2022/07/19 06:45:42;;;;;;;0.65;0.65;;;;;21.60;98668.00;;;;5115949;28;20277;-70
2022/07/19 06:48:09;;;;;;;0.73;0.73;;;;;21.70;98677.00;;;;5115190;28;20205;-71
2022/07/19 06:50:36;;;;;;;0.93;0.93;;;;;21.80;98665.00;;;;5115983;28;20198;-70
2022/07/19 06:53:05;;;;;;;0.93;0.93;;;;;22.00;98668.00;;;;5115698;28;20221;-69
2022/07/19 06:55:34;;;;;;;0.70;0.70;;;;;22.10;98671.00;;;;5115802;28;20214;-70
2022/07/19 06:58:04;;;;;;;0.60;0.60;;;;;22.40;98668.00;;;;5115698;28;20214;-70
2022/07/19 07:00:31;;;;;;;0.65;0.65;;;;;22.50;98660.00;;;;5115569;28;20194;-69
2022/07/19 07:02:58;;;;;;;0.88;0.88;;;;;22.60;98665.00;;;;5115692;28;20282;-70
2022/07/19 07:05:25;;;;;;;0.60;0.60;;;;;22.70;98664.00;;;;5115703;28;20190;-71
2022/07/19 07:07:54;;;;;;;1.05;1.02;;;;;22.80;98663.00;;;;5115492;28;20218;-72
2022/07/19 07:10:21;;;;;;;0.68;0.68;;;;;22.90;98661.00;;;;5115813;28;20212;-70
2022/07/19 07:12:48;;;;;;;0.90;0.90;;;;;23.10;98659.00;;;;5097527;28;20231;-71
2022/07/19 07:15:15;;;;;;;1.02;1.02;;;;;23.20;98655.00;;;;5115630;28;20276;-70
2022/07/19 07:17:42;;;;;;;0.60;0.60;;;;;23.30;98658.00;;;;5115587;28;20186;-70
2022/07/19 07:20:11;;;;;;;9.52;1.15;;;;;23.40;98665.00;;;;5115358;28;20218;-70
2022/07/19 07:22:38;;;;;;;0.50;0.50;;;;;23.70;98659.00;;;;5115445;28;20227;-70
2022/07/19 07:25:06;;;;;;;0.82;0.82;;;;;23.80;98659.00;;;;5115359;28;20675;-71
2022/07/19 07:27:33;;;;;;;1.05;1.05;;;;;23.90;98659.00;;;;5115311;28;20280;-70
2022/07/19 07:30:00;;;;;;;0.70;0.70;;;;;24.10;98652.00;;;;5115299;28;20201;-69
2022/07/19 07:32:27;;;;;;;0.85;0.85;;;;;24.20;98654.00;;;;5115158;28;20226;-69
2022/07/19 07:34:54;;;;;;;0.70;0.70;;;;;24.20;98654.00;;;;5115069;28;20232;-72
2022/07/19 07:37:21;;;;;;;0.90;0.90;;;;;24.40;98654.00;;;;5115179;28;20194;-72
2022/07/19 07:39:49;;;;;;;0.70;0.70;;;;;24.60;98645.00;;;;5115107;28;20197;-72
2022/07/19 07:42:16;;;;;;;2.90;1.67;;;;;24.70;98648.00;;;;5115302;28;20256;-71
2022/07/19 07:44:44;;;;;;;0.90;0.90;;;;;24.70;98644.00;;;;5115101;28;20256;-72
2022/07/19 07:47:11;;;;;;;0.77;0.77;;;;;24.80;98641.00;;;;5114955;28;20194;-70
2022/07/19 07:49:38;;;;;;;0.60;0.60;;;;;24.90;98648.00;;;;5114952;28;20235;-70
2022/07/19 07:52:06;;;;;;;0.77;0.77;;;;;25.10;98650.00;;;;5114914;28;20194;-71
2022/07/19 07:54:34;;;;;;;1.20;1.10;;;;;25.20;98657.00;;;;5114763;28;20228;-72
2022/07/19 07:57:01;;;;;;;0.93;0.88;;;;;25.30;98657.00;;;;5114806;28;20213;-72
2022/07/19 07:59:28;;;;;;;1.10;1.02;;;;;25.70;98645.00;;;;5114482;28;20199;-73
2022/07/19 08:01:57;;;;;;;0.65;0.65;;;;;25.70;98652.00;;;;5114221;28;20260;-70
2022/07/19 08:04:24;;;;;;;0.70;0.70;;;;;25.70;98646.00;;;;5114679;28;20201;-68
2022/07/19 08:06:51;;;;;;;0.50;0.50;;;;;25.80;98642.00;;;;5114644;28;20233;-70
2022/07/19 08:09:18;;;;;;;6.35;1.48;;;;;26.00;98644.00;;;;5114583;28;20309;-70
2022/07/19 08:11:45;;;;;;;0.88;0.88;;;;;26.00;98641.00;;;;5114629;28;20198;-70
2022/07/19 08:14:14;;;;;;;0.50;0.50;;;;;26.10;98645.00;;;;5114444;28;20293;-73
2022/07/19 08:16:44;;;;;;;0.70;0.70;;;;;26.20;98645.00;;;;5114424;28;20697;-71
2022/07/19 08:19:11;;;;;;;0.73;0.73;;;;;26.30;98636.00;;;;5114470;28;20185;-71
2022/07/19 08:21:40;;;;;;;0.65;0.65;;;;;26.50;98644.00;;;;5114418;28;20233;-72
2022/07/19 08:24:07;;;;;;;0.75;0.75;;;;;26.50;98641.00;;;;5114500;28;20262;-70
2022/07/19 08:26:33;;;;;;;1.40;1.27;;;;;26.60;98637.00;;;;5114383;28;20212;-70
2022/07/19 08:29:00;;;;;;;0.95;0.95;;;;;26.80;98643.00;;;;5114300;28;20200;-71
2022/07/19 08:31:28;;;;;;;0.55;0.55;;;;;27.10;98638.00;;;;5114338;28;20246;-71
2022/07/19 08:33:55;;;;;;;0.40;0.40;;;;;27.20;98633.00;;;;5096513;28;20549;-70
2022/07/19 08:36:21;;;;;;;0.75;0.75;;;;;27.40;98638.00;;;;5114290;28;20266;-70
2022/07/19 08:38:48;;;;;;;0.85;0.85;;;;;27.30;98635.00;;;;5096336;28;20638;-70
2022/07/19 08:41:19;;;;;;;0.70;0.70;;;;;27.40;98635.00;;;;5114136;28;20217;-69
2022/07/19 08:43:48;;;;;;;0.65;0.65;;;;;27.60;98629.00;;;;5114215;28;20199;-69
2022/07/19 08:46:15;;;;;;;0.40;0.40;;;;;27.70;98635.00;;;;5114306;28;20218;-70
2022/07/19 08:48:44;;;;;;;0.60;0.60;;;;;27.70;98634.00;;;;5096197;28;20201;-69
2022/07/19 08:51:13;;;;;;;0.80;0.80;;;;;27.70;98631.00;;;;5114296;28;20276;-70
2022/07/19 08:53:40;;;;;;;0.70;0.70;;;;;27.80;98639.00;;;;5114147;28;20222;-72
2022/07/19 08:58:49;;;;;;;0.70;0.70;;;;;28.00;98630.00;;;;5113008;28;20245;-72
2022/07/19 09:01:16;;;;;;;0.57;0.57;;;;;28.00;98638.00;;;;5113972;28;20189;-71
2022/07/19 09:04:09;;;;;;;0.82;0.82;;;;;28.20;98636.00;;;;5113997;28;20200;-70
2022/07/19 09:06:40;;;;;;;1.25;0.80;;;;;28.20;98640.00;;;;5113910;28;20202;-70
2022/07/19 09:09:08;;;;;;;0.70;0.70;;;;;28.20;98641.00;;;;5113861;28;20526;-71
2022/07/19 09:11:36;;;;;;;0.88;0.88;;;;;28.30;98636.00;;;;5114748;28;20213;-70
2022/07/19 09:14:09;;;;;;;0.60;0.60;;;;;28.60;98637.00;;;;5117452;28;20209;-72
2022/07/19 09:17:03;;;;;;;0.40;0.40;;;;;28.80;98641.00;;;;5117429;28;20190;-71
2022/07/19 09:19:32;;;;;;;0.98;0.98;;;;;29.00;98637.00;;;;5120983;28;20266;-70
2022/07/19 09:22:01;;;;;;;0.55;0.55;;;;;29.10;98633.00;;;;5121294;28;20186;-71
2022/07/19 09:24:30;;;;;;;0.52;0.52;;;;;29.10;98626.00;;;;5119467;28;20544;-71
2022/07/19 09:27:02;;;;;;;1.02;1.02;;;;;29.40;98622.00;;;;5119360;28;20202;-73
2022/07/19 09:29:30;;;;;;;0.63;0.63;;;;;29.50;98620.00;;;;5117341;28;20236;-72
2022/07/19 09:32:10;;;;;;;0.90;0.90;;;;;29.70;98620.00;;;;5117208;28;20193;-71
2022/07/19 09:34:39;;;;;;;0.70;0.70;;;;;29.90;98626.00;;;;5117122;28;20225;-70
2022/07/19 09:37:15;;;;;;;0.73;0.73;;;;;30.00;98622.00;;;;5117016;28;20532;-70
2022/07/19 09:39:44;;;;;;;0.55;0.55;;;;;30.00;98620.00;;;;5117228;28;20185;-70
2022/07/19 09:42:13;;;;;;;0.70;0.70;;;;;30.10;98628.00;;;;5116867;28;20197;-70
2022/07/19 09:44:40;;;;;;;0.90;0.90;;;;;30.30;98623.00;;;;5116904;28;20202;-71
2022/07/19 09:47:07;;;;;;;1.05;1.05;;;;;30.40;98623.00;;;;5116851;28;20272;-70
2022/07/19 09:49:37;;;;;;;0.90;0.90;;;;;30.70;98620.00;;;;5116756;28;20222;-70
2022/07/19 09:52:04;;;;;;;0.90;0.90;;;;;30.70;98622.00;;;;5116798;28;20537;-70
2022/07/19 09:54:31;;;;;;;0.60;0.60;;;;;30.80;98624.00;;;;5116689;28;20222;-69
2022/07/19 09:56:59;;;;;;;0.90;0.90;;;;;30.90;98621.00;;;;5116821;28;20198;-70
2022/07/19 09:59:27;;;;;;;0.60;0.60;;;;;31.00;98618.00;;;;5116720;28;20201;-70
2022/07/19 10:01:55;;;;;;;0.50;0.50;;;;;31.00;98627.00;;;;5116566;28;20196;-70
2022/07/19 10:04:24;;;;;;;0.82;0.82;;;;;31.10;98619.00;;;;5116570;28;20213;-70
2022/07/19 10:06:52;;;;;;;0.57;0.57;;;;;31.30;98618.00;;;;5116581;28;20190;-69
2022/07/19 10:09:21;;;;;;;0.60;0.60;;;;;31.40;98622.00;;;;5116505;28;20222;-70
2022/07/19 10:11:48;;;;;;;0.80;0.80;;;;;31.30;98611.00;;;;5116521;28;20258;-71
2022/07/19 10:14:16;;;;;;;0.60;0.60;;;;;31.50;98607.00;;;;5116344;28;20226;-71
2022/07/19 10:16:58;;;;;;;1.20;1.08;;;;;31.50;98607.00;;;;5116366;28;20222;-71
2022/07/19 10:19:37;;;;;;;0.98;0.98;;;;;31.90;98608.00;;;;5116396;28;20205;-70
2022/07/19 10:22:09;;;;;;;0.73;0.73;;;;;31.80;98606.00;;;;5116655;28;20265;-70
2022/07/19 10:24:47;;;;;;;1.50;1.40;;;;;31.90;98599.00;;;;5115662;28;20266;-69
2022/07/19 10:27:15;;;;;;;0.80;0.80;;;;;31.90;98600.00;;;;5098429;28;20202;-72
2022/07/19 10:29:42;;;;;;;0.73;0.73;;;;;32.20;98600.00;;;;5116350;28;20214;-72
2022/07/19 10:32:11;;;;;;;0.70;0.70;;;;;32.10;98598.00;;;;5116232;28;20190;-72
2022/07/19 10:34:38;;;;;;;0.60;0.60;;;;;32.20;98595.00;;;;5098144;28;20294;-72
2022/07/19 10:37:09;;;;;;;0.57;0.57;;;;;32.20;98591.00;;;;5116199;28;20198;-70
2022/07/19 10:39:39;;;;;;;0.80;0.80;;;;;32.30;98590.00;;;;5116200;28;20703;-70
2022/07/19 10:42:17;;;;;;;0.82;0.82;;;;;32.50;98593.00;;;;5116006;28;20654;-71
2022/07/19 10:45:11;;;;;;;3.22;1.38;;;;;32.50;98588.00;;;;5116068;28;20209;-70
2022/07/19 10:48:00;;;;;;;0.93;0.93;;;;;32.70;98590.00;;;;5115958;28;20668;-70
2022/07/19 10:51:00;;;;;;;0.60;0.60;;;;;32.80;98580.00;;;;5101296;28;20262;-70
2022/07/19 10:54:03;;;;;;;0.57;0.57;;;;;32.90;98578.00;;;;5115785;28;20213;-70
2022/07/19 10:56:46;;;;;;;0.75;0.75;;;;;33.10;98577.00;;;;5112522;28;20233;-70
2022/07/19 10:59:14;;;;;;;0.80;0.80;;;;;33.20;98571.00;;;;5115753;28;20196;-70
2022/07/19 11:01:55;;;;;;;1.00;1.00;;;;;33.30;98566.00;;;;5115552;28;20245;-70
2022/07/19 11:04:28;;;;;;;0.80;0.80;;;;;33.40;98571.00;;;;5115631;28;20209;-71
2022/07/19 11:07:19;;;;;;;0.95;0.95;;;;;33.50;98569.00;;;;5115615;28;20248;-71
2022/07/19 11:09:49;;;;;;;1.20;1.10;;;;;33.60;98562.00;;;;5115541;28;20678;-71
2022/07/19 11:12:37;;;;;;;0.63;0.63;;;;;33.70;98557.00;;;;5115581;28;20198;-71
2022/07/19 11:15:09;;;;;;;1.15;1.15;;;;;33.70;98551.00;;;;5115392;28;20222;-70
2022/07/19 11:17:36;;;;;;;0.70;0.70;;;;;33.80;98559.00;;;;5115556;28;20186;-71
2022/07/19 11:20:07;;;;;;;2.53;1.50;;;;;34.00;98561.00;;;;5115393;28;20182;-71
2022/07/19 11:22:42;;;;;;;0.70;0.70;;;;;34.10;98548.00;;;;5115499;28;20213;-71
2022/07/19 11:25:10;;;;;;;0.90;0.90;;;;;34.20;98550.00;;;;5115374;28;20205;-70
2022/07/19 11:27:40;;;;;;;1.30;1.20;;;;;34.40;98546.00;;;;5115179;28;20309;-69
2022/07/19 11:30:08;;;;;;;0.90;0.90;;;;;34.50;98540.00;;;;5115240;28;20270;-71
2022/07/19 11:32:36;;;;;;;0.95;0.95;;;;;34.60;98535.00;;;;5115207;28;20200;-71
2022/07/19 11:35:05;;;;;;;1.33;1.30;;;;;34.70;98539.00;;;;5114972;28;20226;-70
2022/07/19 11:37:33;;;;;;;1.17;1.15;;;;;34.60;98528.00;;;;5115120;28;20194;-70
2022/07/19 11:40:01;;;;;;;0.90;0.90;;;;;34.60;98539.00;;;;5115050;28;20213;-70
2022/07/19 11:42:30;;;;;;;2.67;1.50;;;;;34.70;98542.00;;;;5115034;28;20296;-70
2022/07/19 11:45:07;;;;;;;0.90;0.90;;;;;34.90;98524.00;;;;5115184;28;20194;-72
2022/07/19 11:47:34;;;;;;;0.70;0.70;;;;;35.20;98522.00;;;;5114795;28;20223;-69
2022/07/19 11:50:07;;;;;;;1.00;1.00;;;;;35.30;98519.00;;;;5115009;28;20656;-69
2022/07/19 11:52:43;;;;;;;0.88;0.85;;;;;35.60;98511.00;;;;5114954;28;20191;-69
2022/07/19 11:55:10;;;;;;;1.50;1.40;;;;;35.70;98509.00;;;;5114765;28;20659;-69
2022/07/19 11:57:37;;;;;;;0.95;0.95;;;;;35.70;98508.00;;;;5114837;28;20200;-69
2022/07/19 12:00:08;;;;;;;1.00;1.00;;;;;35.90;98502.00;;;;5114915;28;20194;-70
2022/07/19 12:03:03;;;;;;;0.70;0.70;;;;;36.00;98501.00;;;;5114717;28;20277;-70
2022/07/19 12:05:33;;;;;;;3.05;1.35;;;;;36.20;98501.00;;;;5096767;28;20210;-70
2022/07/19 12:08:02;;;;;;;0.88;0.88;;;;;36.30;98500.00;;;;5114777;28;20237;-71
2022/07/19 12:10:40;;;;;;;0.90;0.90;;;;;36.50;98494.00;;;;5114903;28;20648;-70
2022/07/19 12:13:08;;;;;;;0.80;0.80;;;;;36.60;98501.00;;;;5114616;28;20231;-70
2022/07/19 12:15:48;;;;;;;0.70;0.70;;;;;36.80;98493.00;;;;5114641;28;20214;-70
2022/07/19 12:18:16;;;;;;;1.10;1.10;;;;;37.00;98491.00;;;;5096834;28;20225;-70
2022/07/19 12:20:44;;;;;;;1.20;1.10;;;;;37.10;98482.00;;;;5114405;28;20245;-70
2022/07/19 12:23:15;;;;;;;0.80;0.80;;;;;37.30;98484.00;;;;5114667;28;20653;-70
2022/07/19 12:25:42;;;;;;;1.50;1.23;;;;;37.40;98487.00;;;;5114395;28;20254;-70
2022/07/19 12:28:11;;;;;;;0.75;0.75;;;;;37.50;98488.00;;;;5114224;28;20251;-71